CYDF

Details ICAO CYDF (YDF)
Name DEER LAKE
Region Canada
Timezone America/St_Johns (UTC-3.5)
Plans Departing 26
Arriving 30
Stats Elevation 72 ft / 22 m (AMSL)
Location 49.211000° -57.391246°
Runways 1
Magnetic Variation 19.133° W
Sunrise 2017-12-16 11:40:15 UTC / 2017-12-16 08:10:15 Local
Sunset 2017-12-16 19:53:04 UTC / 2017-12-16 16:23:04 Local
Advertisement - Login to hide

Runways

ID Width Length Bearing (true) Bearing (mag) Surface Threshold Offset Overrun Length
07 151 ft / 46 m 5,989 ft / 1,825 m 46.32° 65.45° Asphalt 0 ft / 0 m 0 ft / 0 m
25 151 ft / 46 m 5,989 ft / 1,825 m 226.34° 245.47° Asphalt 0 ft / 0 m 0 ft / 0 m

Approach Navaids

Runway Type Ident Frequency Range Bearing (true) Bearing (mag) Slope Elevation
25 Localiser IDF 110.30 MHz 18 nm / 33 km 226.30° 245.43° - 72 ft / 22 m (AMSL)
25 Glidescope IDF 110.30 MHz 10 nm / 19 km 249.00° 268.13° 2.70° 72 ft / 22 m (AMSL)

Map

Weather


0- 5 10 15 20 25 30 35+ Temperature / ° C

Clouds and Precipitation
Forecast for 2017-12-16 12:00 UTC. Updated 30 minutes ago

Ground ~20,000 ft ~40,000 ft Winds

METAR

CYDF 161100Z 23011KT 15SM BKN037 BKN150 OVC240 M04/M09 A2968 RMK SC6AC1CI1 SLP054

TAF

TAF CYDF 160742Z 1608/1620 23012G22KT P6SM SCT030 FM161100 22010KT P6SM BKN030 TEMPO 1611/1620 3SM -SHSN OVC015 PROB30 1614/1620 3/4SM -SHSN OVC007 RMK NXT FCST BY 161400Z

Frequencies

Unicom 122.20 MHz MF
Warning: Do not use this data for real-world aviation or navigation. No guarantee of current accuracy is given.